sensor_id;sensor_type;location;lat;lon;timestamp;P1;durP1;ratioP1;P2;durP2;ratioP2
66741;SDS011;53654;54.152;19.432;2024-01-06T00:01:31;43.00;;;34.60;;
66741;SDS011;53654;54.152;19.432;2024-01-06T00:03:59;39.90;;;32.50;;
66741;SDS011;53654;54.152;19.432;2024-01-06T00:06:27;39.10;;;33.00;;
66741;SDS011;53654;54.152;19.432;2024-01-06T00:08:55;41.30;;;34.60;;
66741;SDS011;53654;54.152;19.432;2024-01-06T00:11:24;48.60;;;36.60;;
66741;SDS011;53654;54.152;19.432;2024-01-06T00:13:52;48.60;;;38.00;;
66741;SDS011;53654;54.152;19.432;2024-01-06T00:16:20;53.20;;;38.80;;
66741;SDS011;53654;54.152;19.432;2024-01-06T00:18:49;49.40;;;36.50;;
66741;SDS011;53654;54.152;19.432;2024-01-06T00:21:17;37.40;;;31.50;;
66741;SDS011;53654;54.152;19.432;2024-01-06T00:23:46;39.00;;;31.70;;
66741;SDS011;53654;54.152;19.432;2024-01-06T00:26:14;38.20;;;31.40;;
66741;SDS011;53654;54.152;19.432;2024-01-06T00:28:42;33.60;;;28.70;;
66741;SDS011;53654;54.152;19.432;2024-01-06T00:31:10;31.80;;;27.40;;
66741;SDS011;53654;54.152;19.432;2024-01-06T00:33:38;31.80;;;27.40;;
66741;SDS011;53654;54.152;19.432;2024-01-06T00:36:07;33.30;;;28.80;;
66741;SDS011;53654;54.152;19.432;2024-01-06T00:38:35;34.80;;;28.50;;
66741;SDS011;53654;54.152;19.432;2024-01-06T00:41:04;32.70;;;28.50;;
66741;SDS011;53654;54.152;19.432;2024-01-06T00:43:32;32.00;;;27.60;;
66741;SDS011;53654;54.152;19.432;2024-01-06T00:46:00;33.40;;;27.80;;
66741;SDS011;53654;54.152;19.432;2024-01-06T00:48:28;28.30;;;23.80;;
66741;SDS011;53654;54.152;19.432;2024-01-06T00:50:57;28.80;;;24.10;;
66741;SDS011;53654;54.152;19.432;2024-01-06T00:53:25;27.60;;;24.30;;
66741;SDS011;53654;54.152;19.432;2024-01-06T00:55:53;29.90;;;26.00;;
66741;SDS011;53654;54.152;19.432;2024-01-06T00:58:21;33.40;;;28.90;;
66741;SDS011;53654;54.152;19.432;2024-01-06T01:00:50;34.60;;;28.70;;
66741;SDS011;53654;54.152;19.432;2024-01-06T01:03:18;30.20;;;26.40;;
66741;SDS011;53654;54.152;19.432;2024-01-06T01:05:47;26.60;;;23.70;;
66741;SDS011;53654;54.152;19.432;2024-01-06T01:08:15;24.60;;;21.90;;
66741;SDS011;53654;54.152;19.432;2024-01-06T01:10:43;22.60;;;20.10;;
66741;SDS011;53654;54.152;19.432;2024-01-06T01:13:13;23.30;;;20.70;;
66741;SDS011;53654;54.152;19.432;2024-01-06T01:15:41;25.70;;;22.60;;
66741;SDS011;53654;54.152;19.432;2024-01-06T01:18:09;25.00;;;21.80;;
66741;SDS011;53654;54.152;19.432;2024-01-06T01:20:38;25.00;;;22.10;;
66741;SDS011;53654;54.152;19.432;2024-01-06T01:23:06;24.90;;;21.90;;
66741;SDS011;53654;54.152;19.432;2024-01-06T01:25:34;24.60;;;21.40;;
66741;SDS011;53654;54.152;19.432;2024-01-06T01:28:02;24.80;;;22.10;;
66741;SDS011;53654;54.152;19.432;2024-01-06T01:30:30;33.60;;;29.10;;
66741;SDS011;53654;54.152;19.432;2024-01-06T01:33:00;34.30;;;29.20;;
66741;SDS011;53654;54.152;19.432;2024-01-06T01:35:28;33.70;;;29.10;;
66741;SDS011;53654;54.152;19.432;2024-01-06T01:37:57;33.70;;;28.90;;
66741;SDS011;53654;54.152;19.432;2024-01-06T01:40:25;30.90;;;27.00;;
66741;SDS011;53654;54.152;19.432;2024-01-06T01:42:53;30.50;;;26.90;;
66741;SDS011;53654;54.152;19.432;2024-01-06T01:45:21;31.10;;;26.40;;
66741;SDS011;53654;54.152;19.432;2024-01-06T01:47:49;30.60;;;26.60;;
66741;SDS011;53654;54.152;19.432;2024-01-06T01:50:18;32.50;;;27.50;;
66741;SDS011;53654;54.152;19.432;2024-01-06T01:52:47;34.40;;;29.20;;
66741;SDS011;53654;54.152;19.432;2024-01-06T01:55:16;32.70;;;28.30;;
66741;SDS011;53654;54.152;19.432;2024-01-06T01:57:45;32.90;;;27.70;;
66741;SDS011;53654;54.152;19.432;2024-01-06T02:00:14;29.80;;;26.50;;
66741;SDS011;53654;54.152;19.432;2024-01-06T02:02:43;28.00;;;25.00;;
66741;SDS011;53654;54.152;19.432;2024-01-06T02:05:12;27.20;;;24.30;;
66741;SDS011;53654;54.152;19.432;2024-01-06T02:07:40;26.60;;;23.40;;
66741;SDS011;53654;54.152;19.432;2024-01-06T02:10:08;26.70;;;22.50;;
66741;SDS011;53654;54.152;19.432;2024-01-06T02:12:36;25.40;;;22.60;;
66741;SDS011;53654;54.152;19.432;2024-01-06T02:15:05;25.50;;;22.30;;
66741;SDS011;53654;54.152;19.432;2024-01-06T02:17:33;22.20;;;19.70;;
66741;SDS011;53654;54.152;19.432;2024-01-06T02:20:01;21.60;;;19.30;;
66741;SDS011;53654;54.152;19.432;2024-01-06T02:22:30;22.40;;;20.00;;
66741;SDS011;53654;54.152;19.432;2024-01-06T02:24:58;22.60;;;19.30;;
66741;SDS011;53654;54.152;19.432;2024-01-06T02:27:27;20.90;;;18.50;;
66741;SDS011;53654;54.152;19.432;2024-01-06T02:29:55;19.50;;;17.10;;
66741;SDS011;53654;54.152;19.432;2024-01-06T02:32:23;21.50;;;19.20;;
66741;SDS011;53654;54.152;19.432;2024-01-06T02:34:51;21.70;;;19.20;;
66741;SDS011;53654;54.152;19.432;2024-01-06T02:37:20;22.70;;;20.00;;
66741;SDS011;53654;54.152;19.432;2024-01-06T02:39:48;23.30;;;20.30;;
66741;SDS011;53654;54.152;19.432;2024-01-06T02:42:16;19.70;;;17.60;;
66741;SDS011;53654;54.152;19.432;2024-01-06T02:44:44;19.60;;;17.40;;
66741;SDS011;53654;54.152;19.432;2024-01-06T02:47:12;19.60;;;17.50;;
66741;SDS011;53654;54.152;19.432;2024-01-06T02:49:40;18.50;;;16.50;;
66741;SDS011;53654;54.152;19.432;2024-01-06T02:52:09;17.70;;;15.10;;
66741;SDS011;53654;54.152;19.432;2024-01-06T02:54:37;18.30;;;15.50;;
66741;SDS011;53654;54.152;19.432;2024-01-06T02:57:05;15.10;;;13.50;;
66741;SDS011;53654;54.152;19.432;2024-01-06T02:59:33;15.60;;;13.60;;
66741;SDS011;53654;54.152;19.432;2024-01-06T03:02:02;16.50;;;13.60;;
66741;SDS011;53654;54.152;19.432;2024-01-06T03:04:31;14.80;;;13.20;;
66741;SDS011;53654;54.152;19.432;2024-01-06T03:06:59;17.00;;;14.20;;
66741;SDS011;53654;54.152;19.432;2024-01-06T03:09:27;16.40;;;14.10;;
66741;SDS011;53654;54.152;19.432;2024-01-06T03:11:55;14.80;;;13.30;;
66741;SDS011;53654;54.152;19.432;2024-01-06T03:14:23;16.30;;;13.90;;
66741;SDS011;53654;54.152;19.432;2024-01-06T03:16:51;16.00;;;13.70;;
66741;SDS011;53654;54.152;19.432;2024-01-06T03:19:20;15.30;;;13.70;;
66741;SDS011;53654;54.152;19.432;2024-01-06T03:21:48;15.40;;;13.70;;
66741;SDS011;53654;54.152;19.432;2024-01-06T03:24:16;15.50;;;13.90;;
66741;SDS011;53654;54.152;19.432;2024-01-06T03:26:44;15.30;;;13.70;;
66741;SDS011;53654;54.152;19.432;2024-01-06T03:29:12;17.60;;;14.10;;
66741;SDS011;53654;54.152;19.432;2024-01-06T03:31:44;15.50;;;13.90;;
66741;SDS011;53654;54.152;19.432;2024-01-06T03:34:13;15.90;;;14.30;;
66741;SDS011;53654;54.152;19.432;2024-01-06T03:36:41;15.90;;;13.70;;
66741;SDS011;53654;54.152;19.432;2024-01-06T03:39:10;16.60;;;14.70;;
66741;SDS011;53654;54.152;19.432;2024-01-06T03:41:38;15.20;;;13.60;;
66741;SDS011;53654;54.152;19.432;2024-01-06T03:44:06;14.90;;;13.30;;
66741;SDS011;53654;54.152;19.432;2024-01-06T03:46:35;15.90;;;14.20;;
66741;SDS011;53654;54.152;19.432;2024-01-06T03:49:03;15.10;;;13.60;;
66741;SDS011;53654;54.152;19.432;2024-01-06T03:51:32;12.50;;;11.20;;
66741;SDS011;53654;54.152;19.432;2024-01-06T03:54:00;13.10;;;11.10;;
66741;SDS011;53654;54.152;19.432;2024-01-06T03:56:28;14.50;;;13.00;;
66741;SDS011;53654;54.152;19.432;2024-01-06T03:58:56;13.50;;;12.10;;
66741;SDS011;53654;54.152;19.432;2024-01-06T04:01:24;13.30;;;12.00;;
66741;SDS011;53654;54.152;19.432;2024-01-06T04:03:53;19.70;;;17.30;;
66741;SDS011;53654;54.152;19.432;2024-01-06T04:06:21;21.30;;;19.00;;
66741;SDS011;53654;54.152;19.432;2024-01-06T04:08:49;23.60;;;21.10;;
66741;SDS011;53654;54.152;19.432;2024-01-06T04:11:18;23.60;;;21.10;;
66741;SDS011;53654;54.152;19.432;2024-01-06T04:13:46;20.60;;;18.50;;
66741;SDS011;53654;54.152;19.432;2024-01-06T04:16:14;20.10;;;18.00;;
66741;SDS011;53654;54.152;19.432;2024-01-06T04:18:42;19.20;;;17.20;;
66741;SDS011;53654;54.152;19.432;2024-01-06T04:21:11;20.20;;;17.80;;
66741;SDS011;53654;54.152;19.432;2024-01-06T04:23:39;21.60;;;19.30;;
66741;SDS011;53654;54.152;19.432;2024-01-06T04:26:07;21.00;;;18.80;;
66741;SDS011;53654;54.152;19.432;2024-01-06T04:28:36;21.10;;;18.90;;
66741;SDS011;53654;54.152;19.432;2024-01-06T04:31:04;20.70;;;18.60;;
66741;SDS011;53654;54.152;19.432;2024-01-06T04:33:35;20.90;;;18.40;;
66741;SDS011;53654;54.152;19.432;2024-01-06T04:36:05;20.60;;;18.40;;
66741;SDS011;53654;54.152;19.432;2024-01-06T04:38:33;21.00;;;18.80;;
66741;SDS011;53654;54.152;19.432;2024-01-06T04:41:01;20.90;;;18.40;;
66741;SDS011;53654;54.152;19.432;2024-01-06T04:43:29;21.20;;;19.00;;
66741;SDS011;53654;54.152;19.432;2024-01-06T04:45:57;21.50;;;19.20;;
66741;SDS011;53654;54.152;19.432;2024-01-06T04:48:26;20.20;;;18.00;;
66741;SDS011;53654;54.152;19.432;2024-01-06T04:50:54;14.80;;;13.20;;
66741;SDS011;53654;54.152;19.432;2024-01-06T04:53:23;10.60;;;9.50;;
66741;SDS011;53654;54.152;19.432;2024-01-06T04:55:51;8.80;;;7.90;;
66741;SDS011;53654;54.152;19.432;2024-01-06T04:58:19;8.90;;;8.00;;
66741;SDS011;53654;54.152;19.432;2024-01-06T05:00:47;9.60;;;6.70;;
66741;SDS011;53654;54.152;19.432;2024-01-06T05:03:16;6.70;;;6.00;;
66741;SDS011;53654;54.152;19.432;2024-01-06T05:05:44;6.00;;;5.40;;
66741;SDS011;53654;54.152;19.432;2024-01-06T05:08:12;7.80;;;6.50;;
66741;SDS011;53654;54.152;19.432;2024-01-06T05:10:41;8.50;;;7.00;;
66741;SDS011;53654;54.152;19.432;2024-01-06T05:13:09;7.20;;;6.20;;
66741;SDS011;53654;54.152;19.432;2024-01-06T05:15:37;8.70;;;7.80;;
66741;SDS011;53654;54.152;19.432;2024-01-06T05:18:05;7.10;;;6.00;;
66741;SDS011;53654;54.152;19.432;2024-01-06T05:20:34;6.00;;;5.40;;
66741;SDS011;53654;54.152;19.432;2024-01-06T05:23:02;6.00;;;5.40;;
66741;SDS011;53654;54.152;19.432;2024-01-06T05:25:30;6.20;;;5.60;;
66741;SDS011;53654;54.152;19.432;2024-01-06T05:27:59;7.60;;;6.60;;
66741;SDS011;53654;54.152;19.432;2024-01-06T05:30:27;8.00;;;7.20;;
66741;SDS011;53654;54.152;19.432;2024-01-06T05:32:55;9.60;;;8.00;;
66741;SDS011;53654;54.152;19.432;2024-01-06T05:35:23;9.20;;;8.20;;
66741;SDS011;53654;54.152;19.432;2024-01-06T05:37:52;9.50;;;8.20;;
66741;SDS011;53654;54.152;19.432;2024-01-06T05:40:20;10.30;;;8.30;;
66741;SDS011;53654;54.152;19.432;2024-01-06T05:42:48;13.30;;;9.20;;
66741;SDS011;53654;54.152;19.432;2024-01-06T05:45:16;13.50;;;8.90;;
66741;SDS011;53654;54.152;19.432;2024-01-06T05:47:44;11.70;;;8.20;;
66741;SDS011;53654;54.152;19.432;2024-01-06T05:50:14;8.00;;;6.30;;
66741;SDS011;53654;54.152;19.432;2024-01-06T05:52:44;6.80;;;5.10;;
66741;SDS011;53654;54.152;19.432;2024-01-06T05:55:12;6.60;;;5.30;;
66741;SDS011;53654;54.152;19.432;2024-01-06T05:57:40;5.30;;;4.80;;
66741;SDS011;53654;54.152;19.432;2024-01-06T06:00:09;6.20;;;5.10;;
66741;SDS011;53654;54.152;19.432;2024-01-06T06:02:39;6.20;;;5.60;;
66741;SDS011;53654;54.152;19.432;2024-01-06T06:05:07;5.80;;;5.20;;
66741;SDS011;53654;54.152;19.432;2024-01-06T06:07:36;7.70;;;5.90;;
66741;SDS011;53654;54.152;19.432;2024-01-06T06:10:08;6.80;;;6.10;;
66741;SDS011;53654;54.152;19.432;2024-01-06T06:12:38;7.50;;;6.70;;
66741;SDS011;53654;54.152;19.432;2024-01-06T06:15:06;7.60;;;6.70;;
66741;SDS011;53654;54.152;19.432;2024-01-06T06:17:35;6.90;;;6.00;;
66741;SDS011;53654;54.152;19.432;2024-01-06T06:20:04;6.70;;;5.50;;
66741;SDS011;53654;54.152;19.432;2024-01-06T06:22:34;6.00;;;5.40;;
66741;SDS011;53654;54.152;19.432;2024-01-06T06:25:02;5.60;;;5.00;;
66741;SDS011;53654;54.152;19.432;2024-01-06T06:27:31;6.50;;;5.20;;
66741;SDS011;53654;54.152;19.432;2024-01-06T06:30:00;6.10;;;5.50;;
66741;SDS011;53654;54.152;19.432;2024-01-06T06:32:28;6.50;;;5.40;;
66741;SDS011;53654;54.152;19.432;2024-01-06T06:34:56;6.50;;;5.30;;
66741;SDS011;53654;54.152;19.432;2024-01-06T06:37:24;8.40;;;6.70;;
66741;SDS011;53654;54.152;19.432;2024-01-06T06:39:52;8.10;;;7.30;;
66741;SDS011;53654;54.152;19.432;2024-01-06T06:42:21;7.20;;;6.30;;
66741;SDS011;53654;54.152;19.432;2024-01-06T06:44:49;7.30;;;6.10;;
66741;SDS011;53654;54.152;19.432;2024-01-06T06:47:17;6.40;;;5.80;;
66741;SDS011;53654;54.152;19.432;2024-01-06T06:49:47;6.60;;;6.00;;
66741;SDS011;53654;54.152;19.432;2024-01-06T06:52:15;7.70;;;6.40;;
66741;SDS011;53654;54.152;19.432;2024-01-06T06:54:43;7.90;;;7.10;;
66741;SDS011;53654;54.152;19.432;2024-01-06T06:57:11;7.70;;;7.00;;
66741;SDS011;53654;54.152;19.432;2024-01-06T06:59:39;8.80;;;7.90;;
66741;SDS011;53654;54.152;19.432;2024-01-06T07:02:07;9.50;;;8.60;;
66741;SDS011;53654;54.152;19.432;2024-01-06T07:04:37;9.00;;;8.10;;
66741;SDS011;53654;54.152;19.432;2024-01-06T07:07:05;9.80;;;8.90;;
66741;SDS011;53654;54.152;19.432;2024-01-06T07:09:33;9.90;;;8.90;;
66741;SDS011;53654;54.152;19.432;2024-01-06T07:12:01;9.90;;;8.90;;
66741;SDS011;53654;54.152;19.432;2024-01-06T07:14:29;9.70;;;8.70;;
66741;SDS011;53654;54.152;19.432;2024-01-06T07:16:57;10.00;;;9.00;;
66741;SDS011;53654;54.152;19.432;2024-01-06T07:19:25;11.20;;;10.10;;
66741;SDS011;53654;54.152;19.432;2024-01-06T07:21:53;11.40;;;10.20;;
66741;SDS011;53654;54.152;19.432;2024-01-06T07:24:22;11.00;;;9.90;;
66741;SDS011;53654;54.152;19.432;2024-01-06T07:26:50;11.40;;;10.20;;
66741;SDS011;53654;54.152;19.432;2024-01-06T07:29:18;11.60;;;10.40;;
66741;SDS011;53654;54.152;19.432;2024-01-06T07:31:46;10.90;;;9.60;;
66741;SDS011;53654;54.152;19.432;2024-01-06T07:34:15;12.50;;;11.20;;
66741;SDS011;53654;54.152;19.432;2024-01-06T07:36:43;16.70;;;13.80;;
66741;SDS011;53654;54.152;19.432;2024-01-06T07:39:12;12.90;;;10.90;;
66741;SDS011;53654;54.152;19.432;2024-01-06T07:41:40;12.30;;;10.90;;
66741;SDS011;53654;54.152;19.432;2024-01-06T07:44:08;13.90;;;11.50;;
66741;SDS011;53654;54.152;19.432;2024-01-06T07:46:36;14.00;;;11.50;;
66741;SDS011;53654;54.152;19.432;2024-01-06T07:49:04;15.90;;;11.90;;
66741;SDS011;53654;54.152;19.432;2024-01-06T07:51:33;17.40;;;12.50;;
66741;SDS011;53654;54.152;19.432;2024-01-06T07:54:02;18.60;;;14.00;;
66741;SDS011;53654;54.152;19.432;2024-01-06T07:56:33;20.80;;;15.60;;
66741;SDS011;53654;54.152;19.432;2024-01-06T07:59:01;21.00;;;16.00;;
66741;SDS011;53654;54.152;19.432;2024-01-06T08:01:30;17.90;;;14.00;;
66741;SDS011;53654;54.152;19.432;2024-01-06T08:03:59;20.20;;;15.60;;
66741;SDS011;53654;54.152;19.432;2024-01-06T08:06:27;19.40;;;15.90;;
66741;SDS011;53654;54.152;19.432;2024-01-06T08:08:56;25.20;;;21.80;;
66741;SDS011;53654;54.152;19.432;2024-01-06T08:11:24;25.10;;;22.40;;
66741;SDS011;53654;54.152;19.432;2024-01-06T08:13:52;25.50;;;22.50;;
66741;SDS011;53654;54.152;19.432;2024-01-06T08:16:21;26.30;;;21.70;;
66741;SDS011;53654;54.152;19.432;2024-01-06T08:18:49;24.50;;;20.60;;
66741;SDS011;53654;54.152;19.432;2024-01-06T08:21:18;20.80;;;17.70;;
66741;SDS011;53654;54.152;19.432;2024-01-06T08:23:46;19.90;;;16.40;;
66741;SDS011;53654;54.152;19.432;2024-01-06T08:26:14;14.10;;;11.70;;
66741;SDS011;53654;54.152;19.432;2024-01-06T08:28:43;12.40;;;11.00;;
66741;SDS011;53654;54.152;19.432;2024-01-06T08:31:11;11.00;;;9.80;;
66741;SDS011;53654;54.152;19.432;2024-01-06T08:33:39;10.10;;;8.70;;
66741;SDS011;53654;54.152;19.432;2024-01-06T08:36:07;12.00;;;10.00;;
66741;SDS011;53654;54.152;19.432;2024-01-06T08:38:37;13.80;;;11.80;;
66741;SDS011;53654;54.152;19.432;2024-01-06T08:41:05;13.90;;;11.60;;
66741;SDS011;53654;54.152;19.432;2024-01-06T08:43:33;12.50;;;10.80;;
66741;SDS011;53654;54.152;19.432;2024-01-06T08:46:01;9.60;;;8.60;;
66741;SDS011;53654;54.152;19.432;2024-01-06T08:48:30;10.30;;;8.90;;
66741;SDS011;53654;54.152;19.432;2024-01-06T08:51:02;8.10;;;7.10;;
66741;SDS011;53654;54.152;19.432;2024-01-06T08:53:30;7.70;;;6.80;;
66741;SDS011;53654;54.152;19.432;2024-01-06T08:55:58;7.60;;;6.50;;
66741;SDS011;53654;54.152;19.432;2024-01-06T08:58:26;7.30;;;6.50;;
66741;SDS011;53654;54.152;19.432;2024-01-06T09:00:55;7.70;;;6.50;;
66741;SDS011;53654;54.152;19.432;2024-01-06T09:03:23;7.30;;;6.10;;
66741;SDS011;53654;54.152;19.432;2024-01-06T09:05:57;6.30;;;5.70;;
66741;SDS011;53654;54.152;19.432;2024-01-06T09:08:26;8.20;;;6.60;;
66741;SDS011;53654;54.152;19.432;2024-01-06T09:10:54;8.00;;;6.80;;
66741;SDS011;53654;54.152;19.432;2024-01-06T09:13:26;9.70;;;8.00;;
66741;SDS011;53654;54.152;19.432;2024-01-06T09:15:54;10.00;;;7.70;;
66741;SDS011;53654;54.152;19.432;2024-01-06T09:18:25;9.80;;;8.30;;
66741;SDS011;53654;54.152;19.432;2024-01-06T09:20:55;14.30;;;10.50;;
66741;SDS011;53654;54.152;19.432;2024-01-06T09:23:24;14.20;;;10.90;;
66741;SDS011;53654;54.152;19.432;2024-01-06T09:25:52;15.60;;;11.50;;
66741;SDS011;53654;54.152;19.432;2024-01-06T09:28:20;15.40;;;12.70;;
66741;SDS011;53654;54.152;19.432;2024-01-06T09:30:49;17.70;;;13.00;;
66741;SDS011;53654;54.152;19.432;2024-01-06T09:33:20;21.00;;;18.50;;
66741;SDS011;53654;54.152;19.432;2024-01-06T09:35:48;20.70;;;17.70;;
66741;SDS011;53654;54.152;19.432;2024-01-06T09:38:17;11.10;;;9.10;;
66741;SDS011;53654;54.152;19.432;2024-01-06T09:40:47;12.30;;;9.20;;
66741;SDS011;53654;54.152;19.432;2024-01-06T09:43:17;10.00;;;8.30;;
66741;SDS011;53654;54.152;19.432;2024-01-06T09:45:49;10.40;;;8.40;;
66741;SDS011;53654;54.152;19.432;2024-01-06T09:48:28;11.70;;;9.40;;
66741;SDS011;53654;54.152;19.432;2024-01-06T09:51:00;11.40;;;8.40;;
66741;SDS011;53654;54.152;19.432;2024-01-06T09:53:33;7.40;;;6.30;;
66741;SDS011;53654;54.152;19.432;2024-01-06T09:56:05;4.90;;;4.30;;
66741;SDS011;53654;54.152;19.432;2024-01-06T09:58:34;5.40;;;4.80;;
66741;SDS011;53654;54.152;19.432;2024-01-06T10:01:05;5.90;;;5.30;;
66741;SDS011;53654;54.152;19.432;2024-01-06T10:03:37;7.00;;;5.90;;
66741;SDS011;53654;54.152;19.432;2024-01-06T10:06:06;8.00;;;6.50;;
66741;SDS011;53654;54.152;19.432;2024-01-06T10:08:35;8.00;;;6.80;;
66741;SDS011;53654;54.152;19.432;2024-01-06T10:11:03;10.60;;;7.80;;
66741;SDS011;53654;54.152;19.432;2024-01-06T10:13:32;11.10;;;9.70;;
66741;SDS011;53654;54.152;19.432;2024-01-06T10:16:00;12.90;;;10.10;;
66741;SDS011;53654;54.152;19.432;2024-01-06T10:18:28;14.60;;;11.50;;
66741;SDS011;53654;54.152;19.432;2024-01-06T10:20:58;11.80;;;10.40;;
66741;SDS011;53654;54.152;19.432;2024-01-06T10:23:27;8.70;;;7.30;;
66741;SDS011;53654;54.152;19.432;2024-01-06T10:25:55;5.80;;;5.10;;
66741;SDS011;53654;54.152;19.432;2024-01-06T10:28:27;8.20;;;7.30;;
66741;SDS011;53654;54.152;19.432;2024-01-06T10:30:55;7.30;;;6.10;;
66741;SDS011;53654;54.152;19.432;2024-01-06T10:33:25;4.20;;;3.50;;
66741;SDS011;53654;54.152;19.432;2024-01-06T10:35:54;4.80;;;4.10;;
66741;SDS011;53654;54.152;19.432;2024-01-06T10:38:26;5.90;;;5.20;;
66741;SDS011;53654;54.152;19.432;2024-01-06T10:43:26;7.60;;;5.70;;
66741;SDS011;53654;54.152;19.432;2024-01-06T10:45:57;6.60;;;5.40;;
66741;SDS011;53654;54.152;19.432;2024-01-06T10:48:32;7.20;;;6.00;;
66741;SDS011;53654;54.152;19.432;2024-01-06T10:51:03;6.70;;;6.00;;
66741;SDS011;53654;54.152;19.432;2024-01-06T10:53:35;7.20;;;5.40;;
66741;SDS011;53654;54.152;19.432;2024-01-06T10:56:05;5.20;;;4.50;;
66741;SDS011;53654;54.152;19.432;2024-01-06T10:58:47;2.40;;;2.20;;
66741;SDS011;53654;54.152;19.432;2024-01-06T11:01:22;4.50;;;3.60;;
66741;SDS011;53654;54.152;19.432;2024-01-06T11:03:57;4.20;;;3.20;;
66741;SDS011;53654;54.152;19.432;2024-01-06T11:06:27;4.50;;;3.60;;
66741;SDS011;53654;54.152;19.432;2024-01-06T11:09:07;8.30;;;5.50;;
66741;SDS011;53654;54.152;19.432;2024-01-06T11:11:42;7.50;;;5.20;;
66741;SDS011;53654;54.152;19.432;2024-01-06T11:14:24;4.50;;;3.10;;
66741;SDS011;53654;54.152;19.432;2024-01-06T11:16:56;3.60;;;3.30;;
66741;SDS011;53654;54.152;19.432;2024-01-06T11:22:20;4.70;;;3.50;;
66741;SDS011;53654;54.152;19.432;2024-01-06T11:24:52;7.80;;;5.10;;
66741;SDS011;53654;54.152;19.432;2024-01-06T11:27:27;5.20;;;3.20;;
66741;SDS011;53654;54.152;19.432;2024-01-06T11:29:57;4.90;;;4.30;;
66741;SDS011;53654;54.152;19.432;2024-01-06T11:32:31;10.10;;;7.90;;
66741;SDS011;53654;54.152;19.432;2024-01-06T11:35:07;8.10;;;4.90;;
66741;SDS011;53654;54.152;19.432;2024-01-06T11:45:35;1.70;;;1.50;;
66741;SDS011;53654;54.152;19.432;2024-01-06T11:48:06;2.50;;;2.30;;
66741;SDS011;53654;54.152;19.432;2024-01-06T11:50:36;2.30;;;1.60;;
66741;SDS011;53654;54.152;19.432;2024-01-06T11:53:06;1.10;;;1.00;;
66741;SDS011;53654;54.152;19.432;2024-01-06T11:55:38;1.90;;;1.80;;
66741;SDS011;53654;54.152;19.432;2024-01-06T11:58:07;4.80;;;2.90;;
66741;SDS011;53654;54.152;19.432;2024-01-06T12:00:36;3.50;;;2.80;;
66741;SDS011;53654;54.152;19.432;2024-01-06T12:03:08;3.00;;;2.40;;
66741;SDS011;53654;54.152;19.432;2024-01-06T12:05:37;4.60;;;3.10;;
66741;SDS011;53654;54.152;19.432;2024-01-06T12:08:05;6.00;;;4.50;;
66741;SDS011;53654;54.152;19.432;2024-01-06T12:10:35;6.00;;;4.00;;
66741;SDS011;53654;54.152;19.432;2024-01-06T12:13:05;4.90;;;3.10;;
66741;SDS011;53654;54.152;19.432;2024-01-06T12:15:39;2.50;;;1.80;;
66741;SDS011;53654;54.152;19.432;2024-01-06T12:18:08;2.10;;;1.70;;
66741;SDS011;53654;54.152;19.432;2024-01-06T12:20:36;3.50;;;2.00;;
66741;SDS011;53654;54.152;19.432;2024-01-06T12:23:05;2.80;;;2.20;;
66741;SDS011;53654;54.152;19.432;2024-01-06T12:25:34;4.90;;;3.20;;
66741;SDS011;53654;54.152;19.432;2024-01-06T12:28:07;3.80;;;2.70;;
66741;SDS011;53654;54.152;19.432;2024-01-06T12:30:37;2.60;;;2.40;;
66741;SDS011;53654;54.152;19.432;2024-01-06T12:33:06;5.00;;;4.50;;
66741;SDS011;53654;54.152;19.432;2024-01-06T12:35:35;4.80;;;3.60;;
66741;SDS011;53654;54.152;19.432;2024-01-06T12:38:04;3.90;;;3.40;;
66741;SDS011;53654;54.152;19.432;2024-01-06T12:40:38;4.90;;;3.70;;
66741;SDS011;53654;54.152;19.432;2024-01-06T12:43:07;2.30;;;2.10;;
66741;SDS011;53654;54.152;19.432;2024-01-06T12:45:35;2.50;;;2.30;;
66741;SDS011;53654;54.152;19.432;2024-01-06T12:48:03;4.90;;;3.70;;
66741;SDS011;53654;54.152;19.432;2024-01-06T12:50:32;6.30;;;4.90;;
66741;SDS011;53654;54.152;19.432;2024-01-06T12:53:00;5.20;;;3.90;;
66741;SDS011;53654;54.152;19.432;2024-01-06T12:55:28;5.60;;;4.40;;
66741;SDS011;53654;54.152;19.432;2024-01-06T12:57:56;2.90;;;2.60;;
66741;SDS011;53654;54.152;19.432;2024-01-06T13:00:29;4.60;;;3.30;;
66741;SDS011;53654;54.152;19.432;2024-01-06T13:03:01;3.30;;;2.70;;
66741;SDS011;53654;54.152;19.432;2024-01-06T13:05:30;2.00;;;1.90;;
66741;SDS011;53654;54.152;19.432;2024-01-06T13:07:58;2.90;;;2.70;;
66741;SDS011;53654;54.152;19.432;2024-01-06T13:10:26;6.10;;;4.60;;
66741;SDS011;53654;54.152;19.432;2024-01-06T13:12:54;5.70;;;5.00;;
66741;SDS011;53654;54.152;19.432;2024-01-06T13:15:23;4.70;;;3.60;;
66741;SDS011;53654;54.152;19.432;2024-01-06T13:17:51;3.30;;;3.00;;
66741;SDS011;53654;54.152;19.432;2024-01-06T13:20:20;4.70;;;3.70;;
66741;SDS011;53654;54.152;19.432;2024-01-06T13:22:48;4.10;;;3.70;;
66741;SDS011;53654;54.152;19.432;2024-01-06T13:25:19;8.10;;;7.30;;
66741;SDS011;53654;54.152;19.432;2024-01-06T13:27:47;2.90;;;2.10;;
66741;SDS011;53654;54.152;19.432;2024-01-06T13:30:16;3.70;;;2.80;;
66741;SDS011;53654;54.152;19.432;2024-01-06T13:32:46;3.60;;;3.30;;
66741;SDS011;53654;54.152;19.432;2024-01-06T13:35:14;4.80;;;3.50;;
66741;SDS011;53654;54.152;19.432;2024-01-06T13:37:42;3.10;;;2.50;;
66741;SDS011;53654;54.152;19.432;2024-01-06T13:40:11;2.40;;;2.00;;
66741;SDS011;53654;54.152;19.432;2024-01-06T13:42:40;3.90;;;3.10;;
66741;SDS011;53654;54.152;19.432;2024-01-06T13:45:08;2.70;;;2.30;;
66741;SDS011;53654;54.152;19.432;2024-01-06T13:47:37;2.40;;;2.20;;
66741;SDS011;53654;54.152;19.432;2024-01-06T13:50:06;2.60;;;2.10;;
66741;SDS011;53654;54.152;19.432;2024-01-06T13:52:36;2.40;;;1.80;;
66741;SDS011;53654;54.152;19.432;2024-01-06T13:55:05;3.50;;;2.50;;
66741;SDS011;53654;54.152;19.432;2024-01-06T13:57:34;2.20;;;1.80;;
66741;SDS011;53654;54.152;19.432;2024-01-06T14:00:03;1.80;;;1.50;;
66741;SDS011;53654;54.152;19.432;2024-01-06T14:02:38;2.70;;;1.70;;
66741;SDS011;53654;54.152;19.432;2024-01-06T14:05:06;2.40;;;2.00;;
66741;SDS011;53654;54.152;19.432;2024-01-06T14:07:36;1.90;;;1.70;;
66741;SDS011;53654;54.152;19.432;2024-01-06T14:10:06;2.60;;;1.80;;
66741;SDS011;53654;54.152;19.432;2024-01-06T14:12:35;2.90;;;2.20;;
66741;SDS011;53654;54.152;19.432;2024-01-06T14:15:04;4.70;;;4.20;;
66741;SDS011;53654;54.152;19.432;2024-01-06T14:17:34;9.30;;;7.40;;
66741;SDS011;53654;54.152;19.432;2024-01-06T14:20:03;5.90;;;4.90;;
66741;SDS011;53654;54.152;19.432;2024-01-06T14:22:32;8.70;;;6.30;;
66741;SDS011;53654;54.152;19.432;2024-01-06T14:25:01;8.40;;;6.20;;
66741;SDS011;53654;54.152;19.432;2024-01-06T14:27:33;8.10;;;6.80;;
66741;SDS011;53654;54.152;19.432;2024-01-06T14:30:02;8.80;;;6.80;;
66741;SDS011;53654;54.152;19.432;2024-01-06T14:32:30;7.30;;;5.00;;
66741;SDS011;53654;54.152;19.432;2024-01-06T14:35:01;6.90;;;5.20;;
66741;SDS011;53654;54.152;19.432;2024-01-06T14:37:30;9.00;;;6.20;;
66741;SDS011;53654;54.152;19.432;2024-01-06T14:39:58;7.90;;;6.30;;
66741;SDS011;53654;54.152;19.432;2024-01-06T14:42:26;9.60;;;7.80;;
66741;SDS011;53654;54.152;19.432;2024-01-06T14:44:54;6.70;;;4.90;;